logo
Search for airport 
image banner adimage banner adimage banner ad
image banner ad

VT39 - Taylor

Located in Wolcott, United States

ICAO - VT39, IATA -

Data provided by Airmate  

General information

Coordinates: N44°36'27" W72°28'49"
Elevation is 1140 feet MSL.
Magnetic variation is -16° East
View others Airports in Vermont

Operational data

Special qualification required
Current time UTC:
Current local time:
Weather at : KMVL - Morrisville-Stowe State ( 13 km )
METAR: KMVL 251754Z AUTO 01005KT 10SM CLR 21/08 A2987 RMK AO2 SLP116 T02110078 10211 20100 58014
View NOTAMs / SUP AIP / TFR affecting this airport [VIEW]
Communications frequencies: [VIEW]

Runways:

RWY identifierQFULength (ft)Width (ft)SurfaceLDA (ft)
NW2000100GRASS
SE2000100GRASS

Airport contact information

Address: Wolcott United States

Satellite view of VT39